createdAt,value
2023-03-23T15:59:00.145Z,2.53
2023-03-23T16:01:22.727Z,2.60
2023-03-23T16:03:44.738Z,2.77
2023-03-23T16:06:06.132Z,2.73
2023-03-23T16:08:28.753Z,4.73
2023-03-23T16:10:50.724Z,3.00
2023-03-23T16:13:12.231Z,2.80
2023-03-23T16:15:33.551Z,3.50
2023-03-23T16:17:54.917Z,3.10
2023-03-23T16:20:17.064Z,4.00
2023-03-23T16:22:38.281Z,2.90
2023-03-23T16:25:01.108Z,3.60
2023-03-23T16:27:23.624Z,2.60
2023-03-23T16:30:02.317Z,2.83
2023-03-23T16:32:25.609Z,2.37
2023-03-23T16:34:46.744Z,3.00
2023-03-23T16:37:08.650Z,2.50
2023-03-23T16:39:29.852Z,3.07
2023-03-23T16:41:52.398Z,2.50
2023-03-23T16:44:14.088Z,4.07
2023-03-23T16:46:35.589Z,2.63
2023-03-23T16:48:56.921Z,2.67
2023-03-23T16:51:18.331Z,3.00
2023-03-23T16:53:39.676Z,3.73
2023-03-23T16:56:01.011Z,2.87
2023-03-23T16:58:23.620Z,2.70
2023-03-23T17:00:45.223Z,2.63
2023-03-23T17:03:06.477Z,3.10
2023-03-23T17:05:28.772Z,2.60
2023-03-23T17:07:50.038Z,2.90
2023-03-23T17:10:12.018Z,2.47
2023-03-23T17:12:33.422Z,2.83
2023-03-23T17:14:56.299Z,3.90
2023-03-23T17:17:17.401Z,6.17
2023-03-23T17:19:38.946Z,3.00
2023-03-23T17:22:00.390Z,2.87
2023-03-23T17:24:21.623Z,3.50
2023-03-23T17:26:42.768Z,3.00
2023-03-23T17:29:04.233Z,3.20
2023-03-23T17:31:26.810Z,3.93
2023-03-23T17:33:48.301Z,4.70
2023-03-23T17:36:09.484Z,4.20
2023-03-23T17:38:30.985Z,3.47
2023-03-23T17:40:57.142Z,3.60
2023-03-23T17:43:18.042Z,3.60
2023-03-23T17:45:39.418Z,3.10
2023-03-23T17:48:02.431Z,5.70
2023-03-23T17:50:23.778Z,5.23
2023-03-23T17:52:44.948Z,4.03
2023-03-23T17:55:06.809Z,3.80
2023-03-23T17:57:27.898Z,3.00
2023-03-23T17:59:49.263Z,3.13
2023-03-23T18:02:11.342Z,3.40
2023-03-23T18:04:34.116Z,4.63
2023-03-23T18:06:55.517Z,5.17
2023-03-23T18:09:16.741Z,4.37
2023-03-23T18:11:37.988Z,4.90
2023-03-23T18:13:58.855Z,6.00
2023-03-23T18:16:20.185Z,4.70
2023-03-23T18:18:41.514Z,5.00
2023-03-23T18:21:05.800Z,5.60
2023-03-23T18:23:26.895Z,4.50
2023-03-23T18:25:47.857Z,5.03
2023-03-23T18:28:09.178Z,3.50
2023-03-23T18:30:30.797Z,3.17
2023-03-23T18:32:51.928Z,3.23
2023-03-23T18:35:13.210Z,4.57
2023-03-23T18:37:36.780Z,3.50
2023-03-23T18:39:57.891Z,6.97
2023-03-23T18:42:19.090Z,4.30
2023-03-23T18:44:40.362Z,3.70
2023-03-23T18:47:01.545Z,5.20
2023-03-23T18:49:22.829Z,4.37
2023-03-23T18:51:44.047Z,4.40
2023-03-23T18:54:06.795Z,4.37
2023-03-23T18:56:28.145Z,4.50
2023-03-23T18:58:52.248Z,4.30
2023-03-23T19:01:14.402Z,4.97
2023-03-23T19:03:36.344Z,3.97
2023-03-23T19:05:59.139Z,4.60
2023-03-23T19:08:20.255Z,5.17
2023-03-23T19:10:43.795Z,4.80
2023-03-23T19:13:05.128Z,5.07
2023-03-23T19:15:26.532Z,5.50
2023-03-23T19:17:48.126Z,5.80
2023-03-23T19:20:14.567Z,5.37
2023-03-23T19:22:38.237Z,4.83
2023-03-23T19:24:59.872Z,4.23
2023-03-23T19:27:22.199Z,3.77
2023-03-23T19:29:43.812Z,4.03
2023-03-23T19:32:04.962Z,4.13
2023-03-23T19:34:26.733Z,3.73
2023-03-23T19:36:54.907Z,4.43
2023-03-23T19:39:17.937Z,4.90
2023-03-23T19:41:38.906Z,3.87
2023-03-23T19:44:03.588Z,4.50
2023-03-23T19:46:26.932Z,5.30
2023-03-23T19:48:50.443Z,4.27
2023-03-23T19:51:12.933Z,4.13
2023-03-23T19:53:34.546Z,3.90
2023-03-23T19:55:55.638Z,4.17
2023-03-23T19:58:17.106Z,4.17
2023-03-23T20:00:40.265Z,4.40
2023-03-23T20:03:01.453Z,4.80
2023-03-23T20:05:23.051Z,9.27
2023-03-23T20:07:48.652Z,6.07
2023-03-23T20:10:13.082Z,5.77
2023-03-23T20:12:34.491Z,4.20
2023-03-23T20:14:55.794Z,5.23
2023-03-23T20:17:18.562Z,5.43
2023-03-23T20:19:40.335Z,4.37
2023-03-23T20:22:02.305Z,4.80
2023-03-23T20:24:23.214Z,5.30
2023-03-23T20:26:44.873Z,7.40
2023-03-23T20:29:07.664Z,6.23
2023-03-23T20:31:31.172Z,4.27
2023-03-23T20:34:00.612Z,4.20
2023-03-23T20:36:22.762Z,3.30
2023-03-23T20:38:44.702Z,3.83
2023-03-23T20:41:08.928Z,4.17
2023-03-23T20:43:30.697Z,3.77
2023-03-23T20:45:51.799Z,4.40
2023-03-23T20:48:13.762Z,3.40
2023-03-23T20:50:36.530Z,4.60
2023-03-23T20:52:57.966Z,4.03
2023-03-23T20:55:19.243Z,3.63
2023-03-23T20:57:42.141Z,3.83
2023-03-23T21:00:06.565Z,4.27
2023-03-23T21:02:29.944Z,4.03
2023-03-23T21:04:53.082Z,3.67
2023-03-23T21:07:16.377Z,4.23
2023-03-23T21:09:38.342Z,4.30
2023-03-23T21:12:00.199Z,4.70
2023-03-23T21:14:21.608Z,4.00
2023-03-23T21:16:42.884Z,4.43
2023-03-23T21:19:04.899Z,3.83
2023-03-23T21:21:27.391Z,3.20
2023-03-23T21:23:52.513Z,3.40
2023-03-23T21:26:14.894Z,3.20
2023-03-23T21:28:35.963Z,3.50
2023-03-23T21:31:00.445Z,3.60
2023-03-23T21:33:23.298Z,3.20
2023-03-23T21:35:44.286Z,5.03
2023-03-23T21:38:06.134Z,3.23
2023-03-23T21:40:28.730Z,2.90
2023-03-23T21:42:51.548Z,2.80
2023-03-23T21:45:18.344Z,2.53
2023-03-23T21:47:41.940Z,4.13
2023-03-23T21:50:04.940Z,2.87
2023-03-23T21:52:26.290Z,3.27
2023-03-23T21:54:47.219Z,3.93
2023-03-23T21:57:09.994Z,4.73
2023-03-23T21:59:31.623Z,3.40
2023-03-23T22:01:54.111Z,3.13
2023-03-23T22:04:17.004Z,2.90
2023-03-23T22:06:38.582Z,2.77
2023-03-23T22:09:00.217Z,4.00
2023-03-23T22:11:23.241Z,2.60
2023-03-23T22:13:46.189Z,3.07
2023-03-23T22:16:09.477Z,3.23
2023-03-23T22:18:31.054Z,3.27
2023-03-23T22:20:52.558Z,3.17
2023-03-23T22:23:13.881Z,2.93
2023-03-23T22:25:36.222Z,3.13
2023-03-23T22:27:58.085Z,3.00
2023-03-23T22:30:20.766Z,4.57
2023-03-23T22:32:42.100Z,7.77
2023-03-23T22:35:03.647Z,8.00
2023-03-23T22:37:24.872Z,10.80
2023-03-23T22:39:46.286Z,10.07
2023-03-23T22:42:07.665Z,7.70
2023-03-23T22:44:28.619Z,5.27
2023-03-23T22:46:51.333Z,5.70
2023-03-23T22:49:12.580Z,5.37
2023-03-23T22:51:33.679Z,3.87
2023-03-23T22:53:56.966Z,6.00
2023-03-23T22:56:19.190Z,4.73
2023-03-23T22:58:40.672Z,4.43
2023-03-23T23:01:03.394Z,4.23
2023-03-23T23:03:26.614Z,4.40
2023-03-23T23:05:50.713Z,4.13
2023-03-23T23:08:14.643Z,7.30
2023-03-23T23:10:37.477Z,4.40
2023-03-23T23:12:58.674Z,4.73
2023-03-23T23:15:20.346Z,4.80
2023-03-23T23:17:42.007Z,4.40
2023-03-23T23:20:06.682Z,3.33
2023-03-23T23:22:27.856Z,4.20
2023-03-23T23:24:48.879Z,4.30
2023-03-23T23:27:10.124Z,3.60
2023-03-23T23:29:31.649Z,3.67
2023-03-23T23:31:53.114Z,3.53
2023-03-23T23:34:14.650Z,5.37
2023-03-23T23:36:37.483Z,5.43
2023-03-23T23:38:59.261Z,3.00
2023-03-23T23:41:20.822Z,2.90
2023-03-23T23:43:42.571Z,3.73
2023-03-23T23:46:03.871Z,5.03
2023-03-23T23:48:25.275Z,5.67
2023-03-23T23:50:47.425Z,5.77
2023-03-23T23:53:11.490Z,5.30
2023-03-23T23:55:32.460Z,5.30
2023-03-23T23:57:53.513Z,5.93
